createdAt,value
2022-07-31T00:00:41.357Z,27.83
2022-07-31T00:03:08.784Z,28.27
2022-07-31T00:05:41.420Z,26.15
2022-07-31T00:08:09.022Z,25.38
2022-07-31T00:10:35.679Z,26.38
2022-07-31T00:13:02.479Z,27.67
2022-07-31T00:15:29.108Z,32.15
2022-07-31T00:17:55.819Z,28.33
2022-07-31T00:20:22.253Z,26.73
2022-07-31T00:22:49.234Z,24.35
2022-07-31T00:25:16.878Z,27.42
2022-07-31T00:27:43.956Z,30.65
2022-07-31T00:30:13.046Z,30.95
2022-07-31T00:32:39.807Z,28.67
2022-07-31T00:35:07.008Z,35.55
2022-07-31T00:37:38.157Z,26.20
2022-07-31T00:40:07.918Z,27.45
2022-07-31T00:42:34.920Z,34.35
2022-07-31T00:45:01.587Z,26.30
2022-07-31T00:47:28.288Z,23.90
2022-07-31T00:49:56.771Z,26.20
2022-07-31T00:52:23.247Z,25.58
2022-07-31T00:54:49.680Z,28.75
2022-07-31T00:57:16.147Z,29.63
2022-07-31T00:59:43.718Z,31.17
2022-07-31T01:02:11.290Z,31.27
2022-07-31T01:04:37.708Z,26.45
2022-07-31T01:07:08.217Z,26.33
2022-07-31T01:09:34.653Z,25.63
2022-07-31T01:12:22.732Z,30.15
2022-07-31T01:14:53.113Z,27.65
2022-07-31T01:17:22.245Z,27.92
2022-07-31T01:19:50.696Z,27.83
2022-07-31T01:22:33.578Z,33.05
2022-07-31T01:25:29.209Z,32.28
2022-07-31T01:28:24.268Z,25.63
2022-07-31T01:31:27.238Z,26.13
2022-07-31T01:34:03.764Z,29.55
2022-07-31T01:36:35.192Z,27.00
2022-07-31T01:39:03.605Z,30.40
2022-07-31T01:41:34.230Z,28.85
2022-07-31T01:44:04.457Z,26.15
2022-07-31T01:49:09.831Z,28.08
2022-07-31T01:51:39.081Z,28.55
2022-07-31T01:54:06.347Z,34.47
2022-07-31T01:56:34.793Z,34.60
2022-07-31T01:59:02.877Z,29.88
2022-07-31T02:01:32.182Z,31.25
2022-07-31T02:04:01.328Z,33.07
2022-07-31T02:06:28.760Z,37.97
2022-07-31T02:08:56.540Z,35.95
2022-07-31T02:11:23.569Z,32.40
2022-07-31T02:13:51.583Z,43.95
2022-07-31T02:16:20.335Z,34.22
2022-07-31T02:18:49.683Z,38.10
2022-07-31T02:23:43.705Z,34.42
2022-07-31T02:26:10.340Z,37.72
2022-07-31T02:28:40.651Z,39.28
2022-07-31T02:31:11.481Z,43.33
2022-07-31T02:33:40.078Z,38.92
2022-07-31T02:36:07.749Z,38.17
2022-07-31T02:38:36.108Z,42.72
2022-07-31T02:41:05.225Z,35.38
2022-07-31T02:43:35.230Z,37.92
2022-07-31T02:46:03.404Z,37.60
2022-07-31T02:48:30.890Z,41.80
2022-07-31T02:50:58.138Z,40.28
2022-07-31T02:53:24.908Z,38.08
2022-07-31T02:55:51.796Z,34.58
2022-07-31T02:58:18.493Z,34.63
2022-07-31T03:00:45.855Z,36.20
2022-07-31T03:03:12.614Z,38.03
2022-07-31T03:05:39.066Z,44.63
2022-07-31T03:08:05.699Z,45.22
2022-07-31T03:10:32.163Z,43.55
2022-07-31T03:13:00.677Z,40.08
2022-07-31T03:15:28.947Z,47.42
2022-07-31T03:17:55.734Z,42.72
2022-07-31T03:20:23.440Z,44.75
2022-07-31T03:22:50.718Z,36.65
2022-07-31T03:25:21.612Z,41.25
2022-07-31T03:27:56.014Z,40.50
2022-07-31T03:30:25.182Z,37.53
2022-07-31T03:32:56.167Z,41.85
2022-07-31T03:35:24.598Z,40.67
2022-07-31T03:37:51.565Z,44.67
2022-07-31T03:40:18.223Z,46.72
2022-07-31T03:42:45.401Z,42.30
2022-07-31T03:45:13.241Z,45.50
2022-07-31T03:47:40.057Z,45.28
2022-07-31T03:50:07.956Z,44.45
2022-07-31T03:52:34.916Z,41.63
2022-07-31T03:55:01.728Z,39.80
2022-07-31T03:57:33.989Z,38.95
2022-07-31T04:00:02.642Z,36.97
2022-07-31T04:02:29.879Z,37.40
2022-07-31T04:04:58.554Z,38.55
2022-07-31T04:07:25.102Z,48.25
2022-07-31T04:09:51.945Z,38.95
2022-07-31T04:12:18.523Z,37.45
2022-07-31T04:14:45.193Z,42.28
2022-07-31T04:17:11.879Z,45.78
2022-07-31T04:19:39.259Z,51.47
2022-07-31T04:22:06.713Z,39.70
2022-07-31T04:24:34.185Z,51.83
2022-07-31T04:27:00.662Z,54.20
2022-07-31T04:29:28.688Z,47.88
2022-07-31T04:31:55.855Z,47.08
2022-07-31T04:34:22.467Z,47.75
2022-07-31T04:36:48.969Z,45.35
2022-07-31T04:39:15.485Z,51.78
2022-07-31T04:41:41.947Z,48.95
2022-07-31T04:44:08.444Z,58.42
2022-07-31T04:46:34.907Z,48.92
2022-07-31T04:49:01.478Z,52.72
2022-07-31T04:51:28.104Z,49.67
2022-07-31T04:53:54.586Z,50.30
2022-07-31T04:56:37.376Z,47.63
2022-07-31T04:59:06.683Z,47.65
2022-07-31T05:01:33.742Z,51.40
2022-07-31T05:04:00.647Z,53.35
2022-07-31T05:06:41.102Z,54.58
2022-07-31T05:09:13.746Z,48.15
2022-07-31T05:11:45.650Z,49.17
2022-07-31T05:14:14.223Z,39.90
2022-07-31T05:16:40.883Z,46.30
2022-07-31T05:19:14.508Z,42.08
2022-07-31T05:21:53.274Z,41.42
2022-07-31T05:24:32.699Z,42.60
2022-07-31T05:27:00.835Z,41.65
2022-07-31T05:29:27.287Z,45.20
2022-07-31T05:31:59.977Z,47.78
2022-07-31T05:34:30.150Z,46.65
2022-07-31T05:36:58.322Z,43.83
2022-07-31T05:39:25.198Z,44.30
2022-07-31T05:41:52.704Z,37.83
2022-07-31T05:44:19.361Z,31.77
2022-07-31T05:46:45.873Z,39.38
2022-07-31T05:49:12.666Z,30.75
2022-07-31T05:51:42.494Z,30.42
2022-07-31T05:54:08.927Z,22.65
2022-07-31T05:56:35.376Z,19.10
2022-07-31T05:59:01.807Z,21.67
2022-07-31T06:01:28.353Z,26.08
2022-07-31T06:03:54.803Z,20.00
2022-07-31T06:06:21.452Z,19.33
2022-07-31T06:08:47.889Z,19.48
2022-07-31T06:11:14.310Z,19.73
2022-07-31T06:13:43.518Z,19.50
2022-07-31T06:16:16.173Z,15.80
2022-07-31T06:18:43.109Z,16.27
2022-07-31T06:21:09.881Z,14.25
2022-07-31T06:23:37.409Z,16.10
2022-07-31T06:26:04.345Z,13.88
2022-07-31T06:28:43.173Z,17.42
2022-07-31T06:31:21.998Z,16.90
2022-07-31T06:33:49.932Z,14.55
2022-07-31T06:36:17.786Z,12.25
2022-07-31T06:38:44.523Z,12.00
2022-07-31T06:41:10.927Z,11.77
2022-07-31T06:43:37.557Z,12.30
2022-07-31T06:46:04.013Z,11.68
2022-07-31T06:48:30.625Z,11.20
2022-07-31T06:51:27.964Z,11.40
2022-07-31T06:53:43.472Z,10.10
2022-07-31T06:56:10.136Z,11.25
2022-07-31T06:58:36.588Z,9.68
2022-07-31T07:01:03.199Z,14.00
2022-07-31T07:03:29.672Z,10.75
2022-07-31T07:05:56.103Z,11.40
2022-07-31T07:08:22.596Z,11.77
2022-07-31T07:10:49.487Z,11.82
2022-07-31T07:13:15.991Z,10.68
2022-07-31T07:15:42.411Z,14.23
2022-07-31T07:18:08.856Z,14.25
2022-07-31T07:20:35.285Z,13.90
2022-07-31T07:23:01.717Z,15.32
2022-07-31T07:25:28.793Z,13.30
2022-07-31T07:27:56.628Z,14.30
2022-07-31T07:30:23.704Z,12.80
2022-07-31T07:32:50.120Z,11.65
2022-07-31T07:35:16.678Z,11.00
2022-07-31T07:37:43.170Z,9.75
2022-07-31T07:40:09.983Z,9.43
2022-07-31T07:42:36.574Z,9.68
2022-07-31T07:45:08.106Z,12.30
2022-07-31T07:48:05.294Z,10.80
2022-07-31T07:50:22.727Z,12.43
2022-07-31T07:52:53.339Z,11.80
2022-07-31T07:55:19.755Z,9.98
2022-07-31T07:57:46.250Z,12.30
2022-07-31T08:00:13.616Z,12.63
2022-07-31T08:02:41.256Z,8.77
2022-07-31T08:05:07.823Z,11.38
2022-07-31T08:07:42.862Z,11.10
2022-07-31T08:10:09.892Z,8.98
2022-07-31T08:12:36.514Z,10.30
2022-07-31T08:15:04.430Z,8.98
2022-07-31T08:17:31.148Z,14.35
2022-07-31T08:19:57.633Z,17.05
2022-07-31T08:22:24.086Z,9.85
2022-07-31T08:24:50.564Z,8.48
2022-07-31T08:27:39.614Z,9.93
2022-07-31T08:30:07.205Z,8.10
2022-07-31T08:32:33.667Z,13.32
2022-07-31T08:35:00.223Z,10.95
2022-07-31T08:37:51.815Z,9.05
2022-07-31T08:40:13.123Z,9.02
2022-07-31T08:42:39.568Z,9.20
2022-07-31T08:45:07.990Z,8.85
2022-07-31T08:47:35.906Z,13.20
2022-07-31T08:50:06.450Z,8.60
2022-07-31T08:52:34.917Z,15.95
2022-07-31T08:55:06.356Z,11.27
2022-07-31T08:57:33.404Z,10.13
2022-07-31T08:59:59.818Z,8.18
2022-07-31T09:02:26.511Z,8.70
2022-07-31T09:04:53.094Z,8.05
2022-07-31T09:07:19.711Z,10.82
2022-07-31T09:09:51.552Z,11.60
2022-07-31T09:12:33.609Z,8.63
2022-07-31T09:15:00.935Z,9.05
2022-07-31T09:17:35.874Z,10.35
2022-07-31T09:20:04.317Z,9.82
2022-07-31T09:22:31.367Z,8.88
2022-07-31T09:25:12.853Z,9.07
2022-07-31T09:27:39.575Z,9.23
2022-07-31T09:30:07.679Z,8.32
2022-07-31T09:32:34.123Z,8.77
2022-07-31T09:35:14.455Z,10.32
2022-07-31T09:37:41.283Z,8.70
2022-07-31T09:40:09.275Z,7.78
2022-07-31T09:42:38.301Z,8.77
2022-07-31T09:45:23.024Z,9.90
2022-07-31T09:48:14.382Z,13.50
2022-07-31T09:50:58.511Z,9.00
2022-07-31T09:53:25.815Z,9.75
2022-07-31T09:55:53.892Z,9.23
2022-07-31T09:58:22.202Z,9.32
2022-07-31T10:00:52.419Z,8.80
2022-07-31T10:03:19.785Z,8.90
2022-07-31T10:05:47.550Z,10.05
2022-07-31T10:08:17.269Z,8.18
2022-07-31T10:10:45.065Z,7.50
2022-07-31T10:13:15.474Z,8.35
2022-07-31T10:15:45.492Z,12.48
2022-07-31T10:18:11.980Z,8.30
2022-07-31T10:20:42.075Z,8.55
2022-07-31T10:23:18.952Z,57.45
2022-07-31T10:25:54.472Z,8.13
2022-07-31T10:28:21.901Z,7.55
2022-07-31T10:30:49.209Z,7.88
2022-07-31T10:33:41.857Z,10.77
2022-07-31T10:36:09.171Z,8.80
2022-07-31T10:39:06.487Z,8.98
2022-07-31T10:41:51.828Z,9.70
2022-07-31T10:44:32.130Z,7.70
2022-07-31T10:47:12.133Z,10.40
2022-07-31T10:49:48.347Z,7.82
2022-07-31T10:52:29.229Z,8.52
2022-07-31T10:54:58.246Z,8.88
2022-07-31T10:57:27.106Z,7.40
2022-07-31T10:59:54.093Z,8.52
2022-07-31T11:02:32.083Z,8.10
2022-07-31T11:05:22.988Z,7.72
2022-07-31T11:08:01.501Z,7.90
2022-07-31T11:10:28.167Z,7.97
2022-07-31T11:13:08.360Z,10.68
2022-07-31T11:15:37.383Z,9.50
2022-07-31T11:18:25.374Z,8.63
2022-07-31T11:21:09.467Z,9.35
2022-07-31T11:23:55.640Z,8.23
2022-07-31T11:26:33.062Z,8.35
2022-07-31T11:30:01.488Z,8.77
2022-07-31T11:31:54.540Z,8.15
2022-07-31T11:34:21.081Z,10.75
2022-07-31T11:36:51.255Z,9.85
2022-07-31T11:39:18.541Z,8.18
2022-07-31T11:41:47.295Z,9.30
2022-07-31T11:44:20.731Z,8.30
2022-07-31T11:46:49.945Z,7.50
2022-07-31T11:49:39.206Z,7.30
2022-07-31T11:52:30.785Z,8.25
2022-07-31T11:55:13.379Z,7.40
2022-07-31T11:57:50.764Z,7.63
2022-07-31T12:00:26.769Z,7.50
2022-07-31T12:02:57.531Z,12.95
2022-07-31T12:05:38.731Z,9.32
2022-07-31T12:08:07.706Z,8.35
2022-07-31T12:10:34.457Z,7.85
2022-07-31T12:13:02.304Z,8.40
2022-07-31T12:15:29.114Z,7.70
2022-07-31T12:18:05.059Z,9.23
2022-07-31T12:20:36.991Z,7.95
2022-07-31T12:23:05.483Z,7.50
2022-07-31T12:25:42.663Z,7.82
2022-07-31T12:28:10.078Z,8.10
2022-07-31T12:30:36.685Z,8.55
2022-07-31T12:33:07.856Z,8.45
2022-07-31T12:35:56.242Z,7.78
2022-07-31T12:38:44.724Z,7.70
2022-07-31T12:41:13.470Z,7.95
2022-07-31T12:43:40.275Z,8.25
2022-07-31T12:46:19.101Z,11.33
2022-07-31T12:48:46.370Z,7.95
2022-07-31T12:51:13.159Z,14.77
2022-07-31T12:53:39.643Z,13.32
2022-07-31T12:56:11.381Z,8.15
2022-07-31T12:58:37.842Z,9.45
2022-07-31T13:01:04.503Z,7.80
2022-07-31T13:03:38.861Z,8.45
2022-07-31T13:06:13.216Z,8.05
2022-07-31T13:08:39.710Z,9.35
2022-07-31T13:11:06.146Z,9.02
2022-07-31T13:13:32.579Z,10.40
2022-07-31T13:15:59.027Z,8.13
2022-07-31T13:18:25.467Z,9.70
2022-07-31T13:20:51.896Z,11.13
2022-07-31T13:23:18.335Z,8.32
2022-07-31T13:25:44.789Z,8.65
2022-07-31T13:28:11.323Z,8.30
2022-07-31T13:30:38.592Z,8.85
2022-07-31T13:33:05.136Z,8.63
2022-07-31T13:35:32.607Z,10.82
2022-07-31T13:37:59.021Z,8.23
2022-07-31T13:40:44.617Z,8.40
2022-07-31T13:43:11.334Z,8.25
2022-07-31T13:45:38.305Z,8.15
2022-07-31T13:48:09.369Z,8.00
2022-07-31T13:50:39.874Z,8.18
2022-07-31T13:53:06.710Z,8.73
2022-07-31T13:55:33.330Z,9.30
2022-07-31T13:58:01.437Z,8.38
2022-07-31T14:00:29.380Z,9.10
2022-07-31T14:02:56.045Z,8.80
2022-07-31T14:05:24.324Z,12.32
2022-07-31T14:07:53.262Z,13.57
2022-07-31T14:10:21.517Z,11.15
2022-07-31T14:12:48.704Z,8.85
2022-07-31T14:15:16.504Z,8.65
2022-07-31T14:17:43.325Z,8.57
2022-07-31T14:20:10.220Z,9.30
2022-07-31T14:22:36.810Z,11.23
2022-07-31T14:25:04.149Z,9.80
2022-07-31T14:27:30.750Z,8.82
2022-07-31T14:29:57.224Z,10.80
2022-07-31T14:32:25.062Z,10.38
2022-07-31T14:34:52.106Z,8.90
2022-07-31T14:37:18.764Z,9.82
2022-07-31T14:39:45.233Z,11.05
2022-07-31T14:42:12.229Z,11.45
2022-07-31T14:44:41.881Z,12.60
2022-07-31T14:50:09.526Z,13.50
2022-07-31T14:52:22.493Z,17.33
2022-07-31T14:54:49.109Z,14.80
2022-07-31T14:57:20.227Z,13.70
2022-07-31T14:59:49.060Z,17.35
2022-07-31T15:02:19.858Z,22.05
2022-07-31T15:04:48.526Z,24.77
2022-07-31T15:07:34.205Z,26.85
2022-07-31T15:10:02.064Z,28.38
2022-07-31T15:12:29.118Z,31.23
2022-07-31T15:14:55.499Z,32.42
2022-07-31T15:17:21.930Z,33.30
2022-07-31T15:19:48.398Z,33.13
2022-07-31T15:22:17.459Z,33.58
2022-07-31T15:24:48.286Z,37.08
2022-07-31T15:27:16.038Z,35.47
2022-07-31T15:30:03.333Z,35.40
2022-07-31T15:32:29.569Z,34.95
2022-07-31T15:34:56.036Z,36.65
2022-07-31T15:37:23.423Z,35.75
2022-07-31T15:40:02.962Z,37.33
2022-07-31T15:42:34.099Z,37.22
2022-07-31T15:45:00.767Z,39.63
2022-07-31T15:47:27.255Z,37.90
2022-07-31T15:49:53.746Z,39.67
2022-07-31T15:52:20.189Z,39.17
2022-07-31T15:54:47.136Z,38.17
2022-07-31T15:57:16.058Z,39.53
2022-07-31T15:59:42.708Z,39.10
2022-07-31T16:02:09.113Z,39.67
2022-07-31T16:04:51.652Z,40.47
2022-07-31T16:08:33.190Z,40.53
2022-07-31T16:10:15.577Z,41.70
2022-07-31T16:12:43.106Z,39.67
2022-07-31T16:15:12.225Z,40.22
2022-07-31T16:17:38.891Z,41.50
2022-07-31T16:20:11.793Z,41.83
2022-07-31T16:22:40.342Z,40.78
2022-07-31T16:25:09.768Z,40.92
2022-07-31T16:27:37.131Z,42.08
2022-07-31T16:30:04.822Z,41.72
2022-07-31T16:32:31.286Z,41.72
2022-07-31T16:35:00.939Z,41.45
2022-07-31T16:37:50.283Z,41.67
2022-07-31T16:40:30.397Z,41.30
2022-07-31T16:43:50.247Z,41.45
2022-07-31T16:45:53.434Z,43.25
2022-07-31T16:48:19.998Z,42.90
2022-07-31T16:50:48.358Z,44.15
2022-07-31T16:54:14.500Z,44.28
2022-07-31T16:56:07.000Z,44.33
2022-07-31T16:58:33.507Z,44.55
2022-07-31T17:01:00.086Z,45.60
2022-07-31T17:04:02.077Z,47.30
2022-07-31T17:06:13.014Z,46.25
2022-07-31T17:08:39.472Z,47.58
2022-07-31T17:11:05.969Z,48.05
2022-07-31T17:13:32.565Z,47.67
2022-07-31T17:15:59.046Z,50.88
2022-07-31T17:18:25.966Z,49.75
2022-07-31T17:20:56.266Z,49.33
2022-07-31T17:23:43.365Z,48.40
2022-07-31T17:26:21.173Z,49.22
2022-07-31T17:28:48.485Z,47.42
2022-07-31T17:31:14.887Z,48.17
2022-07-31T17:33:58.217Z,49.55
2022-07-31T17:36:27.657Z,50.30
2022-07-31T17:38:54.123Z,50.28
2022-07-31T17:41:24.787Z,47.17
2022-07-31T17:43:53.301Z,49.13
2022-07-31T17:46:22.135Z,48.30
2022-07-31T17:49:01.434Z,48.47
2022-07-31T17:51:27.924Z,50.63
2022-07-31T17:53:55.145Z,48.90
2022-07-31T17:56:26.251Z,46.85
2022-07-31T17:58:52.698Z,49.17
2022-07-31T18:01:19.166Z,51.03
2022-07-31T18:03:45.848Z,46.95
2022-07-31T18:06:12.299Z,49.17
2022-07-31T18:08:38.760Z,48.70
2022-07-31T18:11:06.500Z,49.40
2022-07-31T18:13:48.338Z,49.15
2022-07-31T18:16:18.719Z,47.90
2022-07-31T18:18:45.684Z,50.08
2022-07-31T18:21:13.475Z,50.15
2022-07-31T18:23:43.566Z,50.90
2022-07-31T18:26:14.301Z,51.63
2022-07-31T18:28:40.823Z,51.45
2022-07-31T18:31:32.687Z,52.45
2022-07-31T18:33:53.887Z,51.65
2022-07-31T18:36:21.224Z,50.92
2022-07-31T18:38:47.887Z,54.45
2022-07-31T18:41:14.500Z,51.78
2022-07-31T18:43:40.966Z,51.90
2022-07-31T18:46:07.401Z,54.03
2022-07-31T18:48:34.296Z,56.05
2022-07-31T18:51:04.762Z,56.83
2022-07-31T18:53:32.251Z,53.88
2022-07-31T18:55:58.702Z,52.60
2022-07-31T18:58:25.159Z,53.75
2022-07-31T19:00:55.118Z,52.45
2022-07-31T19:03:23.277Z,52.65
2022-07-31T19:05:50.845Z,53.40
2022-07-31T19:08:17.395Z,51.13
2022-07-31T19:10:43.955Z,50.70
2022-07-31T19:13:17.231Z,49.67
2022-07-31T19:15:47.093Z,48.45
2022-07-31T19:18:14.239Z,49.22
2022-07-31T19:20:56.391Z,51.10
2022-07-31T19:23:27.107Z,52.63
2022-07-31T19:26:03.520Z,51.00
2022-07-31T19:28:32.725Z,49.40
2022-07-31T19:30:59.230Z,50.40
2022-07-31T19:33:25.763Z,48.08
2022-07-31T19:35:58.348Z,45.97
2022-07-31T19:38:27.533Z,45.40
2022-07-31T19:40:54.464Z,44.58
2022-07-31T19:43:21.051Z,43.75
2022-07-31T19:46:10.508Z,43.97
2022-07-31T19:48:35.190Z,42.60
2022-07-31T19:51:01.659Z,44.67
2022-07-31T19:53:28.238Z,43.47
2022-07-31T19:55:54.971Z,43.50
2022-07-31T19:58:21.647Z,43.38
2022-07-31T20:00:48.161Z,42.67
2022-07-31T20:03:14.666Z,42.17
2022-07-31T20:05:41.203Z,42.28
2022-07-31T20:08:07.619Z,42.63
2022-07-31T20:10:34.130Z,42.45
2022-07-31T20:13:00.646Z,40.67
2022-07-31T20:15:27.433Z,41.78
2022-07-31T20:18:27.559Z,39.58
2022-07-31T20:20:59.910Z,39.55
2022-07-31T20:23:27.243Z,40.45
2022-07-31T20:25:53.795Z,41.30
2022-07-31T20:28:20.413Z,39.65
2022-07-31T20:30:46.886Z,38.97
2022-07-31T20:33:13.666Z,40.38
2022-07-31T20:35:49.018Z,40.05
2022-07-31T20:38:23.810Z,40.25
2022-07-31T20:40:53.689Z,39.35
2022-07-31T20:43:27.102Z,40.22
2022-07-31T20:45:57.262Z,41.55
2022-07-31T20:48:26.452Z,41.25
2022-07-31T20:50:53.030Z,41.25
2022-07-31T20:53:20.853Z,41.58
2022-07-31T20:55:49.705Z,44.55
2022-07-31T20:58:18.400Z,44.88
2022-07-31T21:00:45.503Z,46.03
2022-07-31T21:03:11.994Z,46.25
2022-07-31T21:05:38.484Z,47.13
2022-07-31T21:08:05.257Z,49.08
2022-07-31T21:10:32.056Z,48.58
2022-07-31T21:12:58.489Z,51.22
2022-07-31T21:15:42.525Z,49.20
2022-07-31T21:18:16.091Z,53.35
2022-07-31T21:20:49.612Z,51.13
2022-07-31T21:23:19.433Z,51.10
2022-07-31T21:25:46.059Z,49.97
2022-07-31T21:28:12.837Z,49.72
2022-07-31T21:30:40.121Z,49.13
2022-07-31T21:33:07.897Z,48.35
2022-07-31T21:35:36.632Z,47.35
2022-07-31T21:38:04.397Z,48.97
2022-07-31T21:40:31.681Z,47.20
2022-07-31T21:42:58.435Z,49.80
2022-07-31T21:45:31.395Z,51.00
2022-07-31T21:48:14.109Z,50.75
2022-07-31T21:50:45.503Z,52.17
2022-07-31T21:53:13.124Z,49.90
2022-07-31T21:55:40.646Z,53.28
2022-07-31T21:58:08.362Z,51.70
2022-07-31T22:00:35.228Z,52.38
2022-07-31T22:03:03.410Z,55.35
2022-07-31T22:05:49.054Z,54.55
2022-07-31T22:08:16.136Z,52.80
2022-07-31T22:10:42.801Z,54.60
2022-07-31T22:13:09.427Z,57.75
2022-07-31T22:15:58.539Z,56.65
2022-07-31T22:18:23.175Z,56.10
2022-07-31T22:20:53.204Z,58.03
2022-07-31T22:23:19.983Z,56.13
2022-07-31T22:25:48.948Z,56.88
2022-07-31T22:28:18.897Z,56.58
2022-07-31T22:30:45.886Z,55.83
2022-07-31T22:33:12.581Z,56.03
2022-07-31T22:35:40.582Z,57.38
2022-07-31T22:38:07.833Z,56.88
2022-07-31T22:40:34.690Z,56.33
2022-07-31T22:43:02.382Z,56.25
2022-07-31T22:45:30.232Z,57.92
2022-07-31T22:47:57.713Z,55.22
2022-07-31T22:50:24.800Z,56.05
2022-07-31T22:52:51.802Z,55.58
2022-07-31T22:55:18.446Z,55.47
2022-07-31T22:57:45.187Z,54.22
2022-07-31T23:00:13.910Z,53.50
2022-07-31T23:02:41.595Z,53.38
2022-07-31T23:05:09.003Z,56.88
2022-07-31T23:07:35.548Z,53.35
2022-07-31T23:10:02.267Z,54.97
2022-07-31T23:12:29.459Z,54.58
2022-07-31T23:14:56.191Z,54.85
2022-07-31T23:17:23.578Z,55.58
2022-07-31T23:19:54.360Z,52.78
2022-07-31T23:22:33.511Z,55.67
2022-07-31T23:25:08.911Z,55.15
2022-07-31T23:27:35.631Z,55.38
2022-07-31T23:30:02.113Z,54.40
2022-07-31T23:32:28.755Z,52.63
2022-07-31T23:34:55.274Z,54.97
2022-07-31T23:37:21.722Z,54.10
2022-07-31T23:39:48.289Z,54.08
2022-07-31T23:42:33.418Z,52.22
2022-07-31T23:44:59.924Z,52.70
2022-07-31T23:47:27.979Z,50.42
2022-07-31T23:50:11.823Z,47.70
2022-07-31T23:52:38.283Z,48.60
2022-07-31T23:55:05.190Z,46.92
2022-07-31T23:57:34.359Z,48.00
